Oletha, Texas
Current Conditions -  °F | °C
As of 5:15 AM on Monday 22 Dec 2014 (Local Time) from KLXY Reporting Station
Overcast Overcast  
Wind Chill: 57°   Ceiling: 1300
Heat Index: 57°   Visibility: 10mi
Dew Point: 53°   Wind: 20mph
Humidity: 87%   Direction: 190°S
Pressure: 29.66"   Gusts: 26mph
Location:  31.4027°N, 96.4988°W
Report Text: KLXY 221115Z AUTO 19017G23KT 10SM OVC013 14/12 A2966 RMK AO2 T01400118
Loading
Personal Weather Stations






























Interactive Weather Map New forecast layout! Learn more

10-Day Weather Forecast

Advertisements
Track Severe Weather on mobile